Flight Track Log - Related Links

Times and Time Zones

All times are in EST time to prevent confusion due to time zone crossing. See the N884FT flight status page for this flight to view local times or setup timezone preferences in your user account.

Time Position Orientation Groundspeed Altitude Reporting Facility
EST Latitude Longitude Course Direction KTS MPH feet Rate Location/Type
Tue 08:59:46 AM 28.1000 -80.6500 266° West 54 62 500  Level Orlando TRACON
Tue 09:00:46 AM 28.0833 -80.6500 180° South 113 130 1,400 750 Climbing Orlando TRACON
Tue 09:01:46 AM 28.0500 -80.6500 180° South 111 128 2,000 650 Climbing Orlando TRACON
Tue 09:02:46 AM 28.0333 -80.6833 240° Southwest 143 165 2,700 700 Climbing Orlando TRACON
Tue 09:03:46 AM 28.0500 -80.7333 291° West 130 150 3,400 650 Climbing Orlando TRACON
Tue 09:04:46 AM 28.0500 -80.7667 270° West 131 151 4,000 300 Climbing Orlando TRACON
Tue 09:05:00 AM 28.0872 -80.8981 266° West  Level Estimated
Tue 09:05:46 AM 28.0667 -80.8167 291° West 151 174 4,000  Level Orlando TRACON
Tue 09:06:46 AM 28.0833 -80.8667 291° West 157 181 3,900  Descending Orlando TRACON
Tue 09:07:46 AM 28.0833 -80.9000 270° West 159 183 4,000 50 Climbing Orlando TRACON
Tue 09:08:47 AM 28.1000 -80.9667 286° West 165 190 4,000 50 Level Orlando TRACON
Tue 09:09:46 AM 28.1000 -81.0167 270° West 182 209 4,100 -50 Climbing Orlando TRACON
Tue 09:10:46 AM 28.1000 -81.0667 270° West 184 212 3,900 -99 Descending Orlando TRACON
Tue 09:11:47 AM 28.1000 -81.1333 270° West 182 209 3,900 50 Level Orlando TRACON
Tue 09:12:47 AM 28.1000 -81.1833 270° West 182 209 4,000 50 Climbing Orlando TRACON
Tue 09:13:47 AM 28.0833 -81.2500 254° West 184 212 4,000  Level Orlando TRACON
Tue 09:14:47 AM 28.0833 -81.3000 270° West 182 209 4,000  Level Orlando TRACON
Tue 09:15:47 AM 28.0667 -81.3500 249° West 184 212 4,000  Level Orlando TRACON
Tue 09:16:47 AM 28.0667 -81.4167 270° West 183 211 4,000  Level Orlando TRACON
Tue 09:17:47 AM 28.0500 -81.4667 249° West 185 213 4,000  Level Orlando TRACON
Tue 09:18:47 AM 28.0500 -81.5333 270° West 183 211 4,000  Level Orlando TRACON
Tue 09:19:47 AM 28.0333 -81.5833 249° West 183 211 4,000  Level Orlando TRACON
Tue 09:20:47 AM 28.0333 -81.6333 270° West 183 211 4,000  Level Orlando TRACON
Tue 09:22:40 AM 28.0167 -81.7500 261° West 184 212 4,000  Level Tampa TRACON
Tue 09:23:40 AM 28.0167 -81.8000 270° West 186 214 4,000  Level Tampa TRACON
Tue 09:24:40 AM 28.0000 -81.8667 254° West 187 215 4,000  Level Tampa TRACON
Tue 09:25:40 AM 28.0000 -81.9167 270° West 184 212 4,000  Level Tampa TRACON
Tue 09:26:46 AM 27.9833 -81.9833 254° West 187 215 4,000  Level Tampa TRACON
Tue 09:27:46 AM 27.9833 -82.0500 270° West 183 211 4,000  Level Tampa TRACON
Tue 09:28:52 AM 27.9667 -82.1000 249° West 183 211 4,000  Level Tampa TRACON
Tue 09:29:46 AM 27.9667 -82.1667 270° West 186 214 4,000  Level Tampa TRACON
Tue 09:30:52 AM 27.9667 -82.2167 270° West 187 215 4,000  Level Tampa TRACON
Tue 09:31:52 AM 27.9500 -82.2833 254° West 186 214 4,000  Level Tampa TRACON
Tue 09:32:52 AM 27.9167 -82.3333 233° Southwest 182 209 4,000  Level Tampa TRACON
Tue 09:33:52 AM 27.9000 -82.3833 249° West 182 209 4,000  Level Tampa TRACON
Tue 09:34:52 AM 27.8667 -82.4167 221° Southwest 161 185 4,000 -211 Level Tampa TRACON
Tue 09:35:46 AM 27.8333 -82.4333 204° Southwest 167 192 3,600 -522 Descending Tampa TRACON
Tue 09:36:47 AM 27.8000 -82.4667 221° Southwest 165 190 3,000 -446 Descending Tampa TRACON
Tue 09:37:47 AM 27.7833 -82.5167 249° West 163 188 2,700 -200 Descending Tampa TRACON
Tue 09:38:47 AM 27.8000 -82.5333 319° Northwest 116 133 2,600 -53 Descending Tampa TRACON
Tue 09:39:41 AM 27.8333 -82.5333 360° North 94 108 2,600 -50 Level Tampa TRACON
Tue 09:40:47 AM 27.8500 -82.5333 360° North 94 108 2,500 -190 Descending Tampa TRACON
Tue 09:41:47 AM 27.8833 -82.5333 360° North 89 102 2,200 -526 Descending Tampa TRACON
Tue 09:42:41 AM 27.9000 -82.5333 360° North 87 100 1,500 -800 Descending Tampa TRACON
Tue 09:43:47 AM 27.9333 -82.5333 360° North 97 112 600 -571 Descending Tampa TRACON
Tue 09:44:47 AM 27.9500 -82.5333 360° North 93 107 300 -150 Descending Tampa TRACON
Tue 09:45:47 AM 27.9833 -82.5333 360° North 75 86 300 500 Level Tampa TRACON
Tue 09:46:23 AM 28.0000 -82.5333 360° North 88 101 1,100 765 Climbing Tampa TRACON
Tue 09:47:29 AM 28.0167 -82.5167 41° Northeast 87 100 1,600 524 Climbing Tampa TRACON
Tue 09:48:29 AM 28.0167 -82.4833 90° East 80 92 2,200 700 Climbing Tampa TRACON
Tue 09:49:29 AM 28.0333 -82.4667 41° Northeast 72 83 3,000 400 Climbing Tampa TRACON
Tue 09:50:29 AM 28.0333 -82.4333 90° East 112 129 3,000  Level Tampa TRACON
Tue 09:51:23 AM 28.0500 -82.4000 60° Northeast 105 121 3,000  Level Tampa TRACON
Tue 09:52:23 AM 28.0667 -82.3833 41° Northeast 109 125 3,000  Level Tampa TRACON
Tue 09:53:23 AM 28.0667 -82.3500 90° East 113 130 3,000  Level Tampa TRACON
Tue 09:54:23 AM 28.0833 -82.3167 60° Northeast 110 127 3,000 -48 Level Tampa TRACON
Tue 09:55:29 AM 28.0833 -82.2833 90° East 111 128 2,900 -50 Descending Tampa TRACON
Tue 09:56:23 AM 28.0833 -82.2500 90° East 108 124 2,900  Level Tampa TRACON

Login

Don't have an account? Register now (free) for customized features, flight alerts, and more!